createdAt,value
2022-08-02T00:00:37.246Z,2.70
2022-08-02T00:03:04.258Z,2.63
2022-08-02T00:05:31.282Z,2.70
2022-08-02T00:07:58.457Z,2.75
2022-08-02T00:10:25.371Z,2.80
2022-08-02T00:12:53.221Z,3.10
2022-08-02T00:15:20.370Z,3.05
2022-08-02T00:17:48.564Z,3.50
2022-08-02T00:20:16.271Z,3.88
2022-08-02T00:22:43.154Z,3.50
2022-08-02T00:25:10.807Z,3.60
2022-08-02T00:27:37.704Z,4.10
2022-08-02T00:30:05.524Z,3.80
2022-08-02T00:32:32.572Z,3.80
2022-08-02T00:34:59.411Z,4.43
2022-08-02T00:37:26.426Z,4.15
2022-08-02T00:39:53.263Z,4.05
2022-08-02T00:42:20.219Z,4.03
2022-08-02T00:44:47.012Z,4.20
2022-08-02T00:47:19.190Z,4.10
2022-08-02T00:49:46.273Z,4.10
2022-08-02T00:52:13.311Z,4.05
2022-08-02T00:54:40.475Z,3.95
2022-08-02T00:57:07.364Z,4.15
2022-08-02T00:59:34.175Z,3.78
2022-08-02T01:02:01.233Z,3.47
2022-08-02T01:04:30.886Z,3.75
2022-08-02T01:07:12.558Z,3.85
2022-08-02T01:09:45.288Z,3.60
2022-08-02T01:12:13.376Z,3.22
2022-08-02T01:14:44.367Z,3.00
2022-08-02T01:17:43.185Z,3.10
2022-08-02T01:20:44.139Z,2.60
2022-08-02T01:23:41.348Z,2.30
2022-08-02T01:26:42.034Z,2.40
2022-08-02T01:29:31.813Z,2.10
2022-08-02T01:32:16.946Z,2.15
2022-08-02T01:34:54.836Z,2.35
2022-08-02T01:37:47.947Z,2.22
2022-08-02T01:40:23.164Z,2.38
2022-08-02T01:45:22.344Z,2.10
2022-08-02T01:47:52.156Z,2.47
2022-08-02T01:50:27.028Z,2.20
2022-08-02T01:53:00.696Z,2.10
2022-08-02T01:55:57.894Z,2.20
2022-08-02T01:58:31.006Z,2.20
2022-08-02T02:01:00.102Z,2.20
2022-08-02T02:03:29.559Z,2.10
2022-08-02T02:05:59.587Z,2.30
2022-08-02T02:08:35.571Z,2.30
2022-08-02T02:12:05.886Z,2.58
2022-08-02T02:13:52.058Z,2.40
2022-08-02T02:16:20.472Z,2.70
2022-08-02T02:18:49.461Z,2.88
2022-08-02T02:21:16.838Z,2.50
2022-08-02T02:23:44.084Z,2.22
2022-08-02T02:26:15.312Z,2.55
2022-08-02T02:28:48.125Z,2.47
2022-08-02T02:31:19.066Z,2.53
2022-08-02T02:34:16.335Z,2.53
2022-08-02T02:36:49.993Z,2.78
2022-08-02T02:39:21.851Z,2.58
2022-08-02T02:41:51.073Z,2.70
2022-08-02T02:44:21.188Z,2.60
2022-08-02T02:46:52.049Z,2.58
2022-08-02T02:49:21.858Z,2.70
2022-08-02T02:51:49.432Z,2.83
2022-08-02T02:54:33.796Z,2.97
2022-08-02T02:57:04.024Z,2.80
2022-08-02T02:59:33.195Z,2.70
2022-08-02T03:02:02.291Z,2.70
2022-08-02T03:04:55.227Z,3.15
2022-08-02T03:07:19.328Z,2.85
2022-08-02T03:09:47.333Z,3.08
2022-08-02T03:12:30.254Z,3.22
2022-08-02T03:15:00.615Z,3.42
2022-08-02T03:17:46.920Z,3.35
2022-08-02T03:20:19.782Z,3.05
2022-08-02T03:22:47.883Z,3.20
2022-08-02T03:25:16.571Z,3.30
2022-08-02T03:27:44.280Z,2.83
2022-08-02T03:30:13.775Z,3.15
2022-08-02T03:32:44.590Z,3.15
2022-08-02T03:35:16.677Z,3.17
2022-08-02T03:37:47.983Z,3.00
2022-08-02T03:40:16.388Z,3.40
2022-08-02T03:42:43.602Z,3.50
2022-08-02T03:45:12.738Z,3.28
2022-08-02T03:47:40.546Z,3.95
2022-08-02T03:50:12.547Z,3.80
2022-08-02T03:52:45.041Z,3.47
2022-08-02T03:55:13.261Z,3.28
2022-08-02T03:57:44.464Z,3.72
2022-08-02T04:00:18.239Z,4.43
2022-08-02T04:02:45.129Z,3.45
2022-08-02T04:05:12.345Z,3.60
2022-08-02T04:08:34.046Z,3.30
2022-08-02T04:10:26.812Z,3.35
2022-08-02T04:12:54.417Z,3.67
2022-08-02T04:15:22.117Z,3.35
2022-08-02T04:17:56.700Z,3.65
2022-08-02T04:20:31.205Z,3.67
2022-08-02T04:23:05.917Z,3.03
2022-08-02T04:25:40.204Z,3.38
2022-08-02T04:28:17.511Z,3.50
2022-08-02T04:30:47.203Z,3.40
2022-08-02T04:33:14.883Z,3.30
2022-08-02T04:35:41.973Z,3.28
2022-08-02T04:38:10.735Z,2.80
2022-08-02T04:40:39.076Z,3.28
2022-08-02T04:43:05.951Z,3.10
2022-08-02T04:45:33.603Z,2.88
2022-08-02T04:48:07.655Z,3.35
2022-08-02T04:50:35.513Z,3.20
2022-08-02T04:53:02.806Z,3.10
2022-08-02T04:55:30.264Z,3.28
2022-08-02T04:57:59.120Z,2.50
2022-08-02T05:00:28.093Z,2.80
2022-08-02T05:02:57.279Z,2.05
2022-08-02T05:05:24.388Z,2.47
2022-08-02T05:07:51.264Z,2.33
2022-08-02T05:10:18.309Z,2.15
2022-08-02T05:12:45.330Z,2.40
2022-08-02T05:15:13.648Z,2.65
2022-08-02T05:17:47.483Z,2.10
2022-08-02T05:20:19.193Z,2.42
2022-08-02T05:22:46.693Z,2.25
2022-08-02T05:25:14.079Z,2.08
2022-08-02T05:27:41.300Z,2.08
2022-08-02T05:30:09.247Z,2.15
2022-08-02T05:32:48.978Z,2.03
2022-08-02T05:35:21.945Z,1.75
2022-08-02T05:37:50.559Z,1.83
2022-08-02T05:40:18.366Z,1.95
2022-08-02T05:42:53.470Z,1.83
2022-08-02T05:45:20.581Z,1.98
2022-08-02T05:47:47.452Z,1.70
2022-08-02T05:50:14.363Z,1.40
2022-08-02T05:52:56.770Z,1.58
2022-08-02T05:55:33.862Z,1.70
2022-08-02T05:58:26.870Z,2.08
2022-08-02T06:00:57.186Z,2.60
2022-08-02T06:03:35.210Z,2.42
2022-08-02T06:06:12.125Z,1.70
2022-08-02T06:08:48.487Z,1.52
2022-08-02T06:11:20.891Z,1.02
2022-08-02T06:13:47.954Z,1.17
2022-08-02T06:16:15.192Z,0.85
2022-08-02T06:18:43.911Z,0.57
2022-08-02T06:22:31.598Z,0.68
2022-08-02T06:23:59.645Z,0.60
2022-08-02T06:26:28.386Z,0.57
2022-08-02T06:28:57.976Z,0.65
2022-08-02T06:31:25.120Z,0.88
2022-08-02T06:33:52.262Z,0.50
2022-08-02T06:36:28.300Z,0.52
2022-08-02T06:39:06.579Z,0.57
2022-08-02T06:41:42.499Z,0.45
2022-08-02T06:44:44.719Z,0.55
2022-08-02T06:47:10.888Z,0.50
2022-08-02T06:49:51.446Z,0.40
2022-08-02T06:52:22.295Z,0.40
2022-08-02T06:54:52.484Z,0.20
2022-08-02T06:57:19.305Z,0.30
2022-08-02T06:59:46.318Z,0.40
2022-08-02T07:02:13.476Z,0.30
2022-08-02T07:04:40.351Z,0.55
2022-08-02T07:07:07.356Z,0.52
2022-08-02T07:09:34.197Z,0.50
2022-08-02T07:12:01.009Z,0.50
2022-08-02T07:14:27.932Z,0.63
2022-08-02T07:16:54.770Z,0.50
2022-08-02T07:19:21.752Z,0.73
2022-08-02T07:22:00.773Z,0.63
2022-08-02T07:24:28.856Z,1.00
2022-08-02T07:27:10.511Z,0.80
2022-08-02T07:29:46.793Z,0.88
2022-08-02T07:32:24.221Z,0.80
2022-08-02T07:34:53.049Z,0.80
2022-08-02T07:37:53.759Z,0.82
2022-08-02T07:40:21.019Z,0.80
2022-08-02T07:42:57.776Z,0.70
2022-08-02T07:45:30.317Z,1.00
2022-08-02T07:47:57.248Z,0.90
2022-08-02T07:50:24.523Z,0.77
2022-08-02T07:52:57.890Z,1.00
2022-08-02T07:55:39.474Z,1.00
2022-08-02T07:58:11.113Z,1.02
2022-08-02T08:00:41.046Z,0.90
2022-08-02T08:03:07.927Z,0.98
2022-08-02T08:05:34.764Z,1.00
2022-08-02T08:08:01.608Z,1.00
2022-08-02T08:10:28.706Z,1.15
2022-08-02T08:12:55.504Z,1.10
2022-08-02T08:15:22.466Z,1.27
2022-08-02T08:17:49.461Z,1.20
2022-08-02T08:20:16.248Z,1.30
2022-08-02T08:22:43.379Z,0.88
2022-08-02T08:25:10.608Z,1.27
2022-08-02T08:27:37.879Z,1.48
2022-08-02T08:30:05.345Z,1.00
2022-08-02T08:32:32.187Z,1.00
2022-08-02T08:34:59.584Z,1.10
2022-08-02T08:37:27.481Z,1.60
2022-08-02T08:39:58.073Z,1.23
2022-08-02T08:42:31.313Z,1.10
2022-08-02T08:44:59.524Z,1.25
2022-08-02T08:47:37.685Z,1.10
2022-08-02T08:50:24.544Z,1.10
2022-08-02T08:53:02.858Z,0.98
2022-08-02T08:55:31.530Z,0.90
2022-08-02T08:58:01.089Z,1.00
2022-08-02T09:00:31.574Z,1.15
2022-08-02T09:02:59.300Z,0.98
2022-08-02T09:05:26.606Z,0.98
2022-08-02T09:07:53.633Z,0.85
2022-08-02T09:10:45.409Z,0.90
2022-08-02T09:13:44.874Z,0.70
2022-08-02T09:16:14.505Z,1.10
2022-08-02T09:18:47.436Z,1.00
2022-08-02T09:21:17.956Z,0.80
2022-08-02T09:23:53.001Z,0.90
2022-08-02T09:26:23.768Z,0.80
2022-08-02T09:28:53.558Z,0.60
2022-08-02T09:31:23.723Z,0.77
2022-08-02T09:33:59.800Z,1.10
2022-08-02T09:36:37.201Z,1.40
2022-08-02T09:39:07.057Z,1.10
2022-08-02T09:41:38.190Z,1.05
2022-08-02T09:44:07.278Z,0.80
2022-08-02T09:46:39.507Z,0.60
2022-08-02T09:49:19.066Z,0.30
2022-08-02T09:51:46.944Z,0.30
2022-08-02T09:54:29.428Z,0.30
2022-08-02T09:57:01.069Z,0.30
2022-08-02T09:59:29.571Z,0.40
2022-08-02T10:02:02.262Z,0.40
2022-08-02T10:04:34.096Z,0.20
2022-08-02T10:07:06.847Z,0.30
2022-08-02T10:09:34.140Z,0.40
2022-08-02T10:12:01.827Z,0.20
2022-08-02T10:14:30.548Z,0.20
2022-08-02T10:16:58.845Z,0.20
2022-08-02T10:20:00.561Z,0.20
2022-08-02T10:22:16.162Z,0.22
2022-08-02T10:24:48.268Z,0.20
2022-08-02T10:27:21.712Z,0.30
2022-08-02T10:29:53.630Z,0.20
2022-08-02T10:32:33.714Z,0.30
2022-08-02T10:35:20.002Z,0.20
2022-08-02T10:38:08.426Z,0.20
2022-08-02T10:40:55.363Z,0.13
2022-08-02T10:43:37.471Z,0.35
2022-08-02T10:46:33.817Z,0.20
2022-08-02T10:52:02.703Z,0.20
2022-08-02T10:54:34.177Z,0.20
2022-08-02T10:57:01.864Z,0.30
2022-08-02T10:59:30.015Z,0.40
2022-08-02T11:02:02.404Z,0.60
2022-08-02T11:04:32.671Z,0.20
2022-08-02T11:07:19.500Z,0.30
2022-08-02T11:09:49.474Z,0.30
2022-08-02T11:12:19.869Z,0.30
2022-08-02T11:15:07.533Z,0.32
2022-08-02T11:18:01.620Z,0.30
2022-08-02T11:20:28.865Z,0.30
2022-08-02T11:23:44.360Z,0.30
2022-08-02T11:26:31.023Z,0.30
2022-08-02T11:29:02.369Z,0.30
2022-08-02T11:31:43.931Z,0.30
2022-08-02T11:34:11.701Z,0.20
2022-08-02T11:36:58.662Z,0.22
2022-08-02T11:39:25.612Z,0.20
2022-08-02T11:41:58.850Z,0.50
2022-08-02T11:44:28.545Z,0.45
2022-08-02T11:47:03.167Z,0.45
2022-08-02T11:49:30.699Z,0.20
2022-08-02T11:52:06.789Z,0.35
2022-08-02T11:54:42.849Z,0.30
2022-08-02T11:57:27.947Z,0.32
2022-08-02T12:00:16.517Z,0.40
2022-08-02T12:02:48.988Z,0.35
2022-08-02T12:05:27.264Z,0.40
2022-08-02T12:08:09.313Z,0.40
2022-08-02T12:10:36.213Z,0.50
2022-08-02T12:13:03.313Z,0.30
2022-08-02T12:15:42.011Z,0.50
2022-08-02T12:18:36.758Z,0.40
2022-08-02T12:21:21.299Z,0.40
2022-08-02T12:23:59.940Z,0.40
2022-08-02T12:26:28.532Z,0.30
2022-08-02T12:28:57.895Z,0.40
2022-08-02T12:31:57.088Z,0.30
2022-08-02T12:34:31.385Z,0.32
2022-08-02T12:36:59.172Z,0.60
2022-08-02T12:39:43.275Z,0.40
2022-08-02T12:42:13.404Z,0.40
2022-08-02T12:45:00.463Z,0.30
2022-08-02T12:47:35.657Z,0.30
2022-08-02T12:50:37.987Z,0.40
2022-08-02T12:53:15.100Z,0.35
2022-08-02T12:56:02.844Z,0.40
2022-08-02T12:58:31.941Z,0.38
2022-08-02T13:01:01.683Z,0.30
2022-08-02T13:04:11.362Z,0.30
2022-08-02T13:06:40.871Z,0.30
2022-08-02T13:09:13.686Z,0.40
2022-08-02T13:11:43.487Z,0.32
2022-08-02T13:14:13.077Z,0.30
2022-08-02T13:16:42.314Z,0.30
2022-08-02T13:19:09.179Z,0.50
2022-08-02T13:21:39.951Z,0.35
2022-08-02T13:24:20.786Z,0.22
2022-08-02T13:26:55.861Z,0.40
2022-08-02T13:29:23.093Z,0.20
2022-08-02T13:31:49.974Z,0.32
2022-08-02T13:34:16.848Z,0.30
2022-08-02T13:36:44.156Z,0.40
2022-08-02T13:39:12.093Z,0.30
2022-08-02T13:41:39.191Z,0.40
2022-08-02T13:44:10.497Z,0.30
2022-08-02T13:46:45.631Z,0.30
2022-08-02T13:51:48.566Z,0.30
2022-08-02T13:54:16.644Z,0.30
2022-08-02T13:56:43.578Z,0.30
2022-08-02T13:59:55.322Z,0.40
2022-08-02T14:01:59.024Z,0.40
2022-08-02T14:04:27.269Z,0.38
2022-08-02T14:06:54.420Z,0.25
2022-08-02T14:09:21.521Z,0.40
2022-08-02T14:11:49.211Z,0.20
2022-08-02T14:14:17.390Z,0.30
2022-08-02T14:16:45.930Z,0.30
2022-08-02T14:19:16.306Z,0.30
2022-08-02T14:21:48.073Z,0.30
2022-08-02T14:24:17.324Z,0.40
2022-08-02T14:26:45.724Z,0.30
2022-08-02T14:29:13.973Z,0.40
2022-08-02T14:31:44.382Z,0.40
2022-08-02T14:34:13.298Z,0.30
2022-08-02T14:36:40.355Z,0.50
2022-08-02T14:39:07.468Z,0.30
2022-08-02T14:41:58.851Z,0.38
2022-08-02T14:44:23.802Z,0.38
2022-08-02T14:46:51.625Z,0.30
2022-08-02T14:49:25.784Z,0.30
2022-08-02T14:51:55.093Z,0.30
2022-08-02T14:54:27.775Z,0.22
2022-08-02T14:57:01.767Z,0.30
2022-08-02T14:59:29.417Z,0.30
2022-08-02T15:01:57.023Z,0.20
2022-08-02T15:04:24.103Z,0.30
2022-08-02T15:06:51.612Z,0.30
2022-08-02T15:09:19.691Z,0.40
2022-08-02T15:11:49.077Z,0.30
2022-08-02T15:14:25.663Z,0.20
2022-08-02T15:16:57.170Z,0.35
2022-08-02T15:19:49.727Z,0.30
2022-08-02T15:22:16.998Z,0.20
2022-08-02T15:24:47.949Z,0.30
2022-08-02T15:27:15.602Z,0.38
2022-08-02T15:29:44.585Z,0.30
2022-08-02T15:32:13.091Z,0.40
2022-08-02T15:34:40.536Z,0.30
2022-08-02T15:37:07.414Z,0.30
2022-08-02T15:39:34.399Z,0.22
2022-08-02T15:42:01.197Z,0.40
2022-08-02T15:44:28.515Z,0.30
2022-08-02T15:46:55.896Z,0.30
2022-08-02T15:49:24.320Z,0.20
2022-08-02T15:51:53.343Z,0.28
2022-08-02T15:54:20.730Z,0.30
2022-08-02T15:56:47.694Z,0.20
2022-08-02T15:59:15.082Z,0.20
2022-08-02T16:01:46.854Z,0.30
2022-08-02T16:04:15.799Z,0.30
2022-08-02T16:06:43.328Z,0.30
2022-08-02T16:09:10.335Z,0.30
2022-08-02T16:11:37.340Z,0.40
2022-08-02T16:14:04.785Z,0.30
2022-08-02T16:16:34.995Z,0.22
2022-08-02T16:19:47.040Z,0.30
2022-08-02T16:21:53.608Z,0.30
2022-08-02T16:24:21.438Z,0.40
2022-08-02T16:26:48.542Z,0.40
2022-08-02T16:29:19.269Z,0.30
2022-08-02T16:31:48.004Z,0.47
2022-08-02T16:34:16.112Z,0.40
2022-08-02T16:36:43.040Z,0.40
2022-08-02T16:39:10.093Z,0.40
2022-08-02T16:41:50.937Z,0.30
2022-08-02T16:44:27.645Z,0.50
2022-08-02T16:47:01.118Z,0.50
2022-08-02T16:50:07.483Z,0.40
2022-08-02T16:52:16.746Z,0.40
2022-08-02T16:54:46.381Z,0.40
2022-08-02T16:57:19.606Z,0.40
2022-08-02T16:59:57.953Z,0.50
2022-08-02T17:02:28.726Z,0.40
2022-08-02T17:08:07.724Z,0.50
2022-08-02T17:10:33.656Z,0.77
2022-08-02T17:13:11.310Z,0.50
2022-08-02T17:16:08.268Z,0.40
2022-08-02T17:18:29.030Z,0.52
2022-08-02T17:20:56.689Z,0.50
2022-08-02T17:24:04.479Z,0.65
2022-08-02T17:26:10.704Z,0.90
2022-08-02T17:28:50.804Z,0.80
2022-08-02T17:31:29.784Z,0.80
2022-08-02T17:33:57.279Z,0.70
2022-08-02T17:36:26.013Z,0.95
2022-08-02T17:38:52.865Z,0.77
2022-08-02T17:41:19.832Z,0.77
2022-08-02T17:44:08.674Z,0.77
2022-08-02T17:46:35.961Z,0.80
2022-08-02T17:49:16.914Z,0.90
2022-08-02T17:52:48.964Z,0.73
2022-08-02T17:54:32.108Z,0.80
2022-08-02T17:56:58.935Z,0.80
2022-08-02T17:59:31.081Z,0.90
2022-08-02T18:02:08.994Z,0.80
2022-08-02T18:04:40.371Z,0.70
2022-08-02T18:07:09.785Z,0.75
2022-08-02T18:09:43.523Z,0.60
2022-08-02T18:12:14.999Z,0.90
2022-08-02T18:14:49.298Z,0.80
2022-08-02T18:17:17.296Z,0.60
2022-08-02T18:19:55.142Z,0.77
2022-08-02T18:22:26.985Z,0.93
2022-08-02T18:24:54.471Z,1.02
2022-08-02T18:27:21.746Z,0.75
2022-08-02T18:30:00.437Z,0.80
2022-08-02T18:33:54.249Z,0.80
2022-08-02T18:35:19.121Z,0.75
2022-08-02T18:37:52.118Z,0.70
2022-08-02T18:40:24.570Z,0.60
2022-08-02T18:42:51.377Z,0.60
2022-08-02T18:45:19.751Z,0.60
2022-08-02T18:47:50.834Z,0.55
2022-08-02T18:50:18.997Z,0.75
2022-08-02T18:52:47.979Z,0.70
2022-08-02T18:55:17.454Z,0.90
2022-08-02T18:58:18.074Z,0.70
2022-08-02T19:00:51.716Z,0.75
2022-08-02T19:03:19.726Z,0.88
2022-08-02T19:05:52.403Z,0.80
2022-08-02T19:08:26.301Z,0.95
2022-08-02T19:10:56.256Z,1.10
2022-08-02T19:13:24.593Z,0.90
2022-08-02T19:15:52.635Z,1.00
2022-08-02T19:18:19.488Z,0.80
2022-08-02T19:23:54.207Z,0.80
2022-08-02T19:26:22.137Z,0.82
2022-08-02T19:28:48.934Z,1.10
2022-08-02T19:31:15.760Z,1.00
2022-08-02T19:34:05.853Z,0.80
2022-08-02T19:36:31.122Z,0.82
2022-08-02T19:39:01.124Z,1.10
2022-08-02T19:41:28.010Z,0.95
2022-08-02T19:44:23.315Z,1.10
2022-08-02T19:46:54.610Z,1.27
2022-08-02T19:49:40.430Z,0.90
2022-08-02T19:52:20.870Z,0.90
2022-08-02T19:54:55.667Z,1.10
2022-08-02T19:57:23.180Z,1.10
2022-08-02T19:59:52.214Z,1.10
2022-08-02T20:02:19.674Z,0.80
2022-08-02T20:04:50.255Z,0.73
2022-08-02T20:07:49.766Z,0.65
2022-08-02T20:12:55.015Z,0.80
2022-08-02T20:15:56.405Z,0.77
2022-08-02T20:18:10.833Z,0.80
2022-08-02T20:20:40.030Z,0.77
2022-08-02T20:23:33.907Z,0.60
2022-08-02T20:26:02.284Z,0.60
2022-08-02T20:28:29.332Z,0.70
2022-08-02T20:30:56.275Z,0.70
2022-08-02T20:33:23.685Z,0.60
2022-08-02T20:35:53.269Z,0.60
2022-08-02T20:38:25.084Z,0.40
2022-08-02T20:40:57.862Z,0.50
2022-08-02T20:43:31.233Z,0.32
2022-08-02T20:45:59.093Z,0.40
2022-08-02T20:48:29.875Z,0.30
2022-08-02T20:50:57.172Z,0.30
2022-08-02T20:53:25.973Z,0.30
2022-08-02T20:55:57.460Z,0.30
2022-08-02T20:58:26.481Z,0.30
2022-08-02T21:00:59.225Z,0.30
2022-08-02T21:03:39.217Z,0.30
2022-08-02T21:06:15.133Z,0.30
2022-08-02T21:08:46.178Z,0.22
2022-08-02T21:11:14.093Z,0.20
2022-08-02T21:13:46.580Z,0.40
2022-08-02T21:16:28.799Z,0.50
2022-08-02T21:19:00.105Z,0.20
2022-08-02T21:21:28.536Z,0.40
2022-08-02T21:23:57.549Z,0.22
2022-08-02T21:26:28.378Z,0.50
2022-08-02T21:28:58.206Z,0.40
2022-08-02T21:31:29.805Z,0.20
2022-08-02T21:34:00.496Z,0.30
2022-08-02T21:36:30.756Z,0.40
2022-08-02T21:39:05.609Z,0.40
2022-08-02T21:41:46.290Z,0.60
2022-08-02T21:44:22.485Z,0.40
2022-08-02T21:49:20.542Z,0.47
2022-08-02T21:51:50.329Z,0.50
2022-08-02T21:54:21.779Z,0.40
2022-08-02T21:56:52.284Z,0.40
2022-08-02T21:59:25.463Z,0.38
2022-08-02T22:01:56.695Z,0.40
2022-08-02T22:04:27.785Z,0.22
2022-08-02T22:06:55.759Z,0.40
2022-08-02T22:09:43.841Z,0.30
2022-08-02T22:12:17.743Z,0.30
2022-08-02T22:14:49.647Z,0.40
2022-08-02T22:17:51.778Z,0.38
2022-08-02T22:20:12.435Z,0.50
2022-08-02T22:22:39.837Z,0.30
2022-08-02T22:25:10.040Z,0.30
2022-08-02T22:28:34.793Z,0.30
2022-08-02T22:30:36.024Z,0.30
2022-08-02T22:33:22.937Z,0.30
2022-08-02T22:36:01.685Z,0.38
2022-08-02T22:38:29.477Z,0.40
2022-08-02T22:40:56.356Z,0.40
2022-08-02T22:43:23.598Z,0.45
2022-08-02T22:45:51.309Z,0.40
2022-08-02T22:48:18.404Z,0.30
2022-08-02T22:50:47.226Z,0.40
2022-08-02T22:53:14.110Z,0.40
2022-08-02T22:55:51.791Z,0.30
2022-08-02T22:58:19.521Z,0.32
2022-08-02T22:58:36.523Z,0.47
2022-08-02T22:58:47.623Z,1.17
2022-08-02T22:59:06.251Z,0.63
2022-08-02T23:00:47.689Z,0.40
2022-08-02T23:03:14.550Z,0.40
2022-08-02T23:05:41.733Z,0.45
2022-08-02T23:08:08.577Z,0.43
2022-08-02T23:10:35.434Z,0.47
2022-08-02T23:13:02.261Z,0.40
2022-08-02T23:15:49.205Z,0.50
2022-08-02T23:18:34.498Z,0.52
2022-08-02T23:21:01.648Z,0.50
2022-08-02T23:23:28.509Z,0.43
2022-08-02T23:25:55.331Z,0.60
2022-08-02T23:28:22.157Z,0.60
2022-08-02T23:30:48.969Z,0.70
2022-08-02T23:33:15.793Z,0.90
2022-08-02T23:35:42.782Z,0.60
2022-08-02T23:38:09.668Z,0.60
2022-08-02T23:40:40.309Z,0.68
2022-08-02T23:43:14.979Z,0.80
2022-08-02T23:45:45.195Z,0.60
2022-08-02T23:48:12.415Z,0.80
2022-08-02T23:50:39.503Z,0.70
2022-08-02T23:53:06.320Z,0.65
2022-08-02T23:55:33.480Z,0.55
2022-08-02T23:58:00.361Z,0.43
